Puerto Banus, Marbella

>

This is an optional block (switch it off / on) in the settings - file ($SITE['banners'] = false;)

You can display ads, any other important text or photo’s using text / html or PHP code.

You can place one or more at the top and or bottom and it can all be different for content / size .


Meteosat more information blitzortung!


Radar lluvias more information rain snow radar


Visita nuestra red de sitios de meteo:

Documentation for the template used

MeteoibericaRed estaciones Meteorologicas

MeteoclimaticRed estaciones Meteorologicas



No particular awareness of the weather is required.    There are no Weather-warnings

Informes METAR proximidad

   
EHVK - Volkel Rnlafb, Netherlands
Distancia hasta la estación: SW 18 km
Actualización: 04-04-2020 09:55
Claros  
Claros  
   Viento: South 16.7 km/h
Viento: South 16.7 km/h
Temperatura: 8°C
Térmica: 5°C
Punto de rocío: -1°C
Humedad: 53%
Baromètro: 1024 hPa
Nublado: Claros
Visibilidad: More than 10 km
detalles de la nube: Claros
EHVK 040755Z AUTO 17009KT 140V200 9999 NCD 08/M01 Q1024 BLU
EDLV - Niederrhein, Germany
Distancia hasta la estación: SE 25 km
Actualización: 03-04-2020 15:20
NO actual
Claros  
Claros  
   Viento: WNW 20.4 km/h
Viento: WNW 20.4 km/h
Temperatura: 10°C
Térmica: 7°C
Punto de rocío: 2°C
Humedad: 58%
Baromètro: 1016 hPa
Visibilidad: More than 10 km
detalles de la nube: Claros
EDLV 031320Z 30011KT 280V340 CAVOK 10/02 Q1016
EHDL - Deelen Rnlafb, Netherlands
Distancia hasta la estación: N 35 km
Actualización: 04-04-2020 09:55
Parcialmente nublado  
Parcialmente nublado  
   Viento: South 7.4 km/h
Viento: South 7.4 km/h
Temperatura: 7°C
Térmica: 6°C
Punto de rocío: 1°C
Humedad: 66%
Baromètro: 1024 hPa
Nublado: Parcialmente nublado
Visibilidad: More than 10 km
detalles de la nube: Parcialmente nublado 24000 ft
EHDL 040755Z AUTO 17004KT 110V250 9999 BKN240 07/01 Q1024 BLU
EHEH - Eindhoven Rnlafb, Netherlands
Distancia hasta la estación: SW 48 km
Actualización: 04-04-2020 09:55
Claros  
Claros  
   Viento: SSE 11.1 km/h
Viento: SSE 11.1 km/h
Temperatura: 9°C
Térmica: 7°C
Punto de rocío: -1°C
Humedad: 50%
Baromètro: 1024 hPa
Nublado: Claros
Visibilidad: More than 10 km
detalles de la nube: Claros
EHEH 040755Z AUTO 15006KT 110V180 9999 NCD 09/M01 Q1024 BLU 15007KT CAVOK
EHGR - Gilze-Rijen Rnla, Netherlands
Distancia hasta la estación: WSW 70 km
Actualización: 04-04-2020 09:55
Claros  
Claros  
   Viento: SSE 13 km/h
Viento: SSE 13 km/h
Temperatura: 9°C
Térmica: 7°C
Punto de rocío: -1°C
Humedad: 50%
Baromètro: 1024 hPa
Nublado: Claros
Visibilidad: More than 10 km
detalles de la nube: Claros
EHGR 040755Z AUTO 16007KT 110V190 9999 NCD 09/M01 Q1024 BLU
EBBL - Kleine-Brogel(Ba, Belgium
Distancia hasta la estación: SSW 71 km
Actualización: 04-04-2020 09:55
Claros  
Claros  
   Viento: SSE 11.1 km/h
Viento: SSE 11.1 km/h
Temperatura: 9°C
Térmica: 7°C
Punto de rocío: -3°C
Humedad: 43%
Baromètro: 1024 hPa
Nublado: Claros
Visibilidad: More than 10 km
detalles de la nube: Claros
EBBL 040755Z AUTO 15006KT 9999 NCD 09/M03 Q1024 BLU

Guión original por  Saratoga-weather.org Adaptado para la plantilla por  Weerstation Leuven

Usted encontrará nuestra información del tiempo también en:

Iberian Peninsula Weather Network